Time;durP1;ratioP1;P1;durP2;ratioP2;P2;SDS_P1;SDS_P2;PMS_P1;PMS_P2;Temp;Humidity;BMP_temperature;BMP_pressure;BME280_temperature;BME280_humidity;BME280_pressure;Samples;Min_cycle;Max_cycle;Signal;HPM_P1;HPM_P2
2022/12/02 00:01:44;;;;;;;50.25;25.27;;;3.80;99.90;;;;;;5113743;28;20032;-68
2022/12/02 00:04:21;;;;;;;51.63;23.17;;;3.80;99.90;;;;;;5113408;28;20479;-68
2022/12/02 00:06:47;;;;;;;52.65;25.25;;;3.80;99.90;;;;;;5079200;28;20379;-68
2022/12/02 00:09:24;;;;;;;56.92;23.60;;;3.80;99.90;;;;;;5114116;28;20043;-68
2022/12/02 00:11:50;;;;;;;51.80;25.30;;;3.80;99.90;;;;;;5095613;28;20035;-69
2022/12/02 00:14:32;;;;;;;47.22;22.20;;;3.80;99.90;;;;;;5095685;28;20039;-68
2022/12/02 00:16:58;;;;;;;52.15;23.27;;;3.70;99.90;;;;;;5095356;28;20373;-68
2022/12/02 00:19:23;;;;;;;52.03;24.02;;;3.70;99.90;;;;;;5113326;28;20038;-68
2022/12/02 00:21:50;;;;;;;46.90;22.30;;;3.70;99.90;;;;;;5078224;28;20856;-68
2022/12/02 00:24:17;;;;;;;46.47;22.90;;;3.70;99.90;;;;;;5113148;28;20063;-68
2022/12/02 00:26:43;;;;;;;53.35;24.15;;;3.70;99.90;;;;;;5112953;28;20552;-68
2022/12/02 00:29:09;;;;;;;48.22;23.55;;;3.70;99.90;;;;;;5094689;28;20044;-68
2022/12/02 00:31:35;;;;;;;51.78;23.73;;;3.70;99.90;;;;;;5094252;28;20043;-68
2022/12/02 00:34:01;;;;;;;47.72;23.75;;;3.60;99.90;;;;;;5112883;28;20045;-69
2022/12/02 00:36:27;;;;;;;50.35;23.08;;;3.60;99.90;;;;;;5077679;28;20096;-69
2022/12/02 00:38:54;;;;;;;55.10;26.45;;;3.60;99.90;;;;;;5077742;28;20085;-68
2022/12/02 00:41:20;;;;;;;49.95;22.45;;;3.60;99.90;;;;;;5113398;28;20392;-68
2022/12/02 00:46:36;;;;;;;48.28;23.35;;;3.60;99.90;;;;;;5094405;28;20055;-68
2022/12/02 00:49:10;;;;;;;49.53;24.13;;;3.60;99.90;;;;;;5094971;28;20049;-68
2022/12/02 00:51:38;;;;;;;55.15;25.23;;;3.60;99.90;;;;;;5077750;28;20062;-69
2022/12/02 00:54:05;;;;;;;53.13;23.27;;;3.60;99.90;;;;;;5094766;28;20043;-68
2022/12/02 00:56:31;;;;;;;55.33;24.42;;;3.60;99.90;;;;;;5077928;28;20564;-68
2022/12/02 00:58:57;;;;;;;50.10;23.88;;;3.60;99.90;;;;;;5094397;28;20040;-69
2022/12/02 01:01:23;;;;;;;51.70;23.00;;;3.50;99.90;;;;;;5093372;28;20039;-68
2022/12/02 01:03:49;;;;;;;48.90;24.45;;;3.50;99.90;;;;;;5077488;28;20437;-68
2022/12/02 01:06:15;;;;;;;55.58;24.88;;;3.50;99.90;;;;;;5094095;28;20040;-68
2022/12/02 01:08:41;;;;;;;52.05;23.45;;;3.50;99.90;;;;;;5112821;28;20049;-68
2022/12/02 01:11:07;;;;;;;57.08;25.00;;;3.50;99.90;;;;;;5112461;28;20096;-68
2022/12/02 01:13:32;;;;;;;49.97;24.05;;;3.50;99.90;;;;;;5094276;28;20130;-68
2022/12/02 01:15:58;;;;;;;58.50;26.42;;;3.50;99.90;;;;;;5112326;28;20036;-68
2022/12/02 01:18:24;;;;;;;51.90;24.27;;;3.50;99.90;;;;;;5077474;28;20472;-68
2022/12/02 01:20:50;;;;;;;51.85;23.98;;;3.50;99.90;;;;;;5094147;28;20039;-68
2022/12/02 01:23:16;;;;;;;53.15;24.98;;;3.50;99.90;;;;;;5094301;28;20043;-68
2022/12/02 01:25:42;;;;;;;57.70;25.10;;;3.50;99.90;;;;;;5094179;28;20126;-68
2022/12/02 01:28:08;;;;;;;51.92;25.17;;;3.50;99.90;;;;;;5094103;28;20083;-68
2022/12/02 01:30:34;;;;;;;60.40;25.08;;;3.50;99.90;;;;;;5111797;28;20480;-68
2022/12/02 01:33:00;;;;;;;52.17;24.45;;;3.50;99.90;;;;;;5093802;28;20058;-68
2022/12/02 01:35:26;;;;;;;52.72;24.75;;;3.50;99.90;;;;;;5112426;28;20042;-68
2022/12/02 01:37:52;;;;;;;50.83;23.00;;;3.50;99.90;;;;;;5094024;28;20484;-68
2022/12/02 01:40:18;;;;;;;56.25;25.80;;;3.50;99.90;;;;;;5093827;28;20092;-68
2022/12/02 01:42:45;;;;;;;54.70;23.77;;;3.40;99.90;;;;;;5093874;28;20468;-68
2022/12/02 01:45:12;;;;;;;52.72;25.10;;;3.40;99.90;;;;;;5111794;28;20044;-68
2022/12/02 01:47:38;;;;;;;51.97;25.40;;;3.40;99.90;;;;;;5112053;28;20044;-69
2022/12/02 01:50:07;;;;;;;52.25;25.48;;;3.40;99.90;;;;;;5076901;28;20493;-68
2022/12/02 01:52:33;;;;;;;52.33;23.88;;;3.40;99.90;;;;;;5111502;28;20047;-68
2022/12/02 01:54:58;;;;;;;47.67;24.40;;;3.40;99.90;;;;;;5093882;28;20510;-69
2022/12/02 01:57:27;;;;;;;54.67;25.17;;;3.40;99.90;;;;;;5093551;28;20403;-68
2022/12/02 01:59:52;;;;;;;51.80;25.00;;;3.40;99.90;;;;;;5111510;28;20044;-68
2022/12/02 02:02:36;;;;;;;52.33;25.15;;;3.40;99.90;;;;;;5093453;28;20038;-68
2022/12/02 02:05:19;;;;;;;54.13;24.80;;;3.40;99.90;;;;;;5093466;28;20474;-68
2022/12/02 02:07:48;;;;;;;52.20;23.88;;;3.40;99.90;;;;;;5093437;28;20039;-68
2022/12/02 02:10:14;;;;;;;54.95;24.77;;;3.40;99.90;;;;;;5093595;28;20069;-68
2022/12/02 02:12:40;;;;;;;60.90;25.85;;;3.40;99.90;;;;;;5092978;28;20048;-68
2022/12/02 02:15:09;;;;;;;59.28;25.58;;;3.40;99.90;;;;;;5093213;28;20111;-68
2022/12/02 02:17:35;;;;;;;55.05;24.83;;;3.40;99.90;;;;;;5076315;28;20050;-68
2022/12/02 02:20:03;;;;;;;56.20;25.15;;;3.40;99.90;;;;;;5111205;28;20039;-68
2022/12/02 02:22:38;;;;;;;52.65;25.23;;;3.40;99.90;;;;;;5093270;28;20028;-68
2022/12/02 02:25:14;;;;;;;56.92;27.33;;;3.40;99.90;;;;;;5111554;28;20040;-68
2022/12/02 02:27:43;;;;;;;59.50;26.80;;;3.40;99.90;;;;;;5092775;28;20039;-68
2022/12/02 02:30:09;;;;;;;50.97;24.20;;;3.40;99.90;;;;;;5092987;28;20039;-68
2022/12/02 02:32:35;;;;;;;53.15;24.63;;;3.40;99.90;;;;;;5092815;28;20043;-69
2022/12/02 02:35:02;;;;;;;55.08;25.52;;;3.40;99.90;;;;;;5093028;28;20123;-68
2022/12/02 02:37:28;;;;;;;51.90;24.35;;;3.40;99.90;;;;;;5111295;28;20036;-68
2022/12/02 02:39:53;;;;;;;53.05;24.88;;;3.40;99.90;;;;;;5093125;28;20050;-68
2022/12/02 02:42:19;;;;;;;53.45;23.85;;;3.40;99.90;;;;;;5092573;28;20364;-68
2022/12/02 02:44:45;;;;;;;59.83;25.30;;;3.30;99.90;;;;;;5111101;28;20476;-68
2022/12/02 02:47:11;;;;;;;44.00;21.90;;;3.40;99.90;;;;;;5092798;28;20043;-69
2022/12/02 02:49:37;;;;;;;43.53;21.30;;;3.30;99.90;;;;;;5093016;28;20031;-68
2022/12/02 02:52:02;;;;;;;47.35;21.25;;;3.30;99.90;;;;;;5110730;28;20131;-68
2022/12/02 02:54:28;;;;;;;45.20;21.63;;;3.30;99.90;;;;;;5075806;28;20594;-68
2022/12/02 02:56:54;;;;;;;47.13;22.27;;;3.30;99.90;;;;;;5109663;28;20089;-68
2022/12/02 02:59:20;;;;;;;43.72;21.92;;;3.30;99.90;;;;;;5110173;28;20040;-68
2022/12/02 03:01:49;;;;;;;46.17;21.83;;;3.30;99.90;;;;;;5110480;28;20071;-68
2022/12/02 03:04:18;;;;;;;45.63;21.05;;;3.30;99.90;;;;;;5092702;28;20320;-68
2022/12/02 03:06:45;;;;;;;49.50;22.00;;;3.30;99.90;;;;;;5092351;28;20047;-68
2022/12/02 03:09:15;;;;;;;41.78;20.67;;;3.30;99.90;;;;;;5075554;28;20040;-68
2022/12/02 03:11:44;;;;;;;41.60;20.00;;;3.30;99.90;;;;;;5109965;28;20079;-68
2022/12/02 03:14:11;;;;;;;40.53;19.92;;;3.30;99.90;;;;;;5092185;28;20126;-68
2022/12/02 03:16:37;;;;;;;39.17;18.70;;;3.30;99.90;;;;;;5092387;28;20039;-68
2022/12/02 03:19:04;;;;;;;42.28;20.85;;;3.30;99.90;;;;;;5092447;28;20042;-68
2022/12/02 03:21:32;;;;;;;43.45;19.70;;;3.30;99.90;;;;;;5092143;28;20071;-68
2022/12/02 03:24:00;;;;;;;43.05;20.48;;;3.30;99.90;;;;;;5110584;28;20046;-68
2022/12/02 03:26:27;;;;;;;41.72;19.73;;;3.30;99.90;;;;;;5092065;28;20380;-69
2022/12/02 03:28:54;;;;;;;37.92;19.08;;;3.30;99.90;;;;;;5092370;28;20467;-68
2022/12/02 03:31:21;;;;;;;34.30;18.70;;;3.30;99.90;;;;;;5096159;28;20044;-68
2022/12/02 03:33:48;;;;;;;36.92;18.33;;;3.30;99.90;;;;;;5096490;28;20071;-68
2022/12/02 03:36:14;;;;;;;42.28;18.20;;;3.30;99.90;;;;;;5079677;28;20040;-68
2022/12/02 03:38:40;;;;;;;44.03;19.40;;;3.30;99.90;;;;;;5096222;28;20123;-68
2022/12/02 03:41:07;;;;;;;40.60;17.35;;;3.30;99.90;;;;;;5095760;28;20134;-68
2022/12/02 03:43:32;;;;;;;40.15;17.60;;;3.30;99.90;;;;;;5096473;28;20107;-68
2022/12/02 03:45:59;;;;;;;35.97;17.17;;;3.30;99.90;;;;;;5079156;28;20411;-68
2022/12/02 03:48:26;;;;;;;33.10;16.95;;;3.30;99.90;;;;;;5114339;28;20419;-68
2022/12/02 03:50:53;;;;;;;37.00;19.00;;;3.20;99.90;;;;;;5096046;28;20126;-68
2022/12/02 03:53:20;;;;;;;38.03;17.35;;;3.20;99.90;;;;;;5078839;28;20126;-68
2022/12/02 03:55:47;;;;;;;36.80;15.63;;;3.20;99.90;;;;;;5095414;28;20086;-68
2022/12/02 03:58:13;;;;;;;31.27;15.40;;;3.20;99.90;;;;;;5095880;28;20039;-68
2022/12/02 04:00:39;;;;;;;30.60;16.20;;;3.20;99.90;;;;;;5114162;28;20038;-68
2022/12/02 04:03:05;;;;;;;31.55;15.32;;;3.20;99.90;;;;;;5095822;28;20487;-69
2022/12/02 04:05:31;;;;;;;38.17;16.88;;;3.10;99.90;;;;;;5095745;28;20070;-68
2022/12/02 04:07:57;;;;;;;31.80;16.38;;;3.10;99.90;;;;;;5095617;28;20094;-69
2022/12/02 04:10:23;;;;;;;36.83;16.77;;;3.20;99.90;;;;;;5113715;28;20081;-68
2022/12/02 04:12:49;;;;;;;37.35;16.23;;;3.10;99.90;;;;;;5095381;28;20067;-68
2022/12/02 04:15:14;;;;;;;32.35;16.55;;;3.10;99.90;;;;;;5095550;28;20103;-69
2022/12/02 04:17:40;;;;;;;35.85;15.45;;;3.10;99.90;;;;;;5113812;28;20035;-68
2022/12/02 04:20:07;;;;;;;35.15;15.40;;;3.10;99.90;;;;;;5095496;28;20798;-69
2022/12/02 04:22:33;;;;;;;31.80;16.48;;;3.10;99.90;;;;;;5095307;28;20042;-68
2022/12/02 04:25:01;;;;;;;34.35;15.95;;;3.10;99.90;;;;;;5113139;28;20035;-68
2022/12/02 04:27:27;;;;;;;34.00;16.13;;;3.10;99.90;;;;;;5113701;28;20071;-68
2022/12/02 04:29:53;;;;;;;34.25;15.88;;;3.00;99.90;;;;;;5113430;28;20042;-68
2022/12/02 04:32:19;;;;;;;32.65;15.30;;;3.00;99.90;;;;;;5095460;28;20421;-68
2022/12/02 04:34:45;;;;;;;31.30;16.13;;;3.00;99.90;;;;;;5113410;28;20509;-68
2022/12/02 04:37:11;;;;;;;30.48;14.23;;;3.00;99.90;;;;;;5078384;28;20039;-68
2022/12/02 04:39:37;;;;;;;31.05;13.73;;;3.00;99.90;;;;;;5077705;28;20126;-69
2022/12/02 04:42:03;;;;;;;30.08;14.65;;;3.00;99.90;;;;;;5112781;28;20429;-68
2022/12/02 04:44:29;;;;;;;30.90;16.02;;;2.90;99.90;;;;;;5112053;28;20047;-68
2022/12/02 04:46:54;;;;;;;35.13;16.83;;;2.90;99.90;;;;;;5095179;28;20059;-68
2022/12/02 04:49:20;;;;;;;34.45;16.38;;;3.00;99.90;;;;;;5094804;28;20375;-69
2022/12/02 04:51:46;;;;;;;36.58;18.77;;;3.00;99.90;;;;;;5094582;28;20071;-68
2022/12/02 04:54:11;;;;;;;35.88;16.88;;;3.00;99.90;;;;;;5111758;28;20564;-68
2022/12/02 04:56:37;;;;;;;36.88;19.17;;;2.90;99.90;;;;;;5112274;28;20040;-68
2022/12/02 04:59:03;;;;;;;36.13;18.40;;;3.00;99.90;;;;;;5112816;28;20035;-68
2022/12/02 05:01:29;;;;;;;39.30;16.50;;;2.90;99.90;;;;;;5094653;28;20054;-68
2022/12/02 05:03:54;;;;;;;40.70;18.00;;;2.90;99.90;;;;;;5094556;28;20059;-67
2022/12/02 05:06:20;;;;;;;36.10;17.42;;;3.00;99.90;;;;;;5094619;28;20071;-68
2022/12/02 05:08:46;;;;;;;37.53;17.05;;;2.90;99.90;;;;;;5112531;28;20039;-68
2022/12/02 05:11:11;;;;;;;41.28;18.13;;;2.90;99.90;;;;;;5094778;28;20364;-68
2022/12/02 05:13:37;;;;;;;37.72;17.15;;;2.90;99.90;;;;;;5112759;28;20387;-69
2022/12/02 05:16:03;;;;;;;43.03;20.17;;;2.90;99.90;;;;;;5094402;28;20419;-68
2022/12/02 05:18:29;;;;;;;42.50;17.95;;;2.90;99.90;;;;;;5111229;28;20119;-69
2022/12/02 05:20:54;;;;;;;46.13;19.27;;;2.90;99.90;;;;;;5093767;28;20040;-69
2022/12/02 05:23:20;;;;;;;48.42;20.13;;;2.90;99.90;;;;;;5094608;28;20040;-68
2022/12/02 05:25:46;;;;;;;43.67;19.73;;;2.90;99.90;;;;;;5112555;28;20507;-68
2022/12/02 05:28:12;;;;;;;44.45;19.63;;;2.90;99.90;;;;;;5094139;28;20089;-68
2022/12/02 05:30:37;;;;;;;42.05;20.00;;;2.90;99.90;;;;;;5112516;28;20043;-68
2022/12/02 05:33:03;;;;;;;50.55;22.27;;;2.80;99.90;;;;;;5094022;28;20046;-68
2022/12/02 05:35:29;;;;;;;40.88;18.73;;;2.90;99.90;;;;;;5111739;28;20035;-68
2022/12/02 05:37:55;;;;;;;50.13;22.42;;;2.90;99.90;;;;;;5112488;28;20071;-68
2022/12/02 05:40:21;;;;;;;41.53;20.00;;;2.80;99.90;;;;;;5112198;28;20079;-68
2022/12/02 05:42:46;;;;;;;46.70;20.30;;;2.80;99.90;;;;;;5094176;28;20093;-68
2022/12/02 05:45:23;;;;;;;41.90;19.15;;;2.80;99.90;;;;;;5112169;28;20395;-68
2022/12/02 05:47:54;;;;;;;49.10;21.98;;;2.80;99.90;;;;;;5077203;28;20066;-68
2022/12/02 05:50:20;;;;;;;44.80;20.80;;;2.80;99.90;;;;;;5076515;28;20100;-68
2022/12/02 05:52:48;;;;;;;45.15;20.52;;;2.80;99.90;;;;;;5110965;28;20097;-69
2022/12/02 05:55:17;;;;;;;47.22;21.27;;;2.80;99.90;;;;;;5111617;28;20088;-68
2022/12/02 05:57:43;;;;;;;45.17;21.15;;;2.80;99.90;;;;;;5110906;28;20035;-68
2022/12/02 06:00:16;;;;;;;48.30;20.35;;;2.80;99.90;;;;;;5110622;28;20040;-69
2022/12/02 06:02:48;;;;;;;48.83;21.75;;;2.80;99.90;;;;;;5111670;28;20034;-68
2022/12/02 06:05:21;;;;;;;45.85;21.70;;;2.80;99.90;;;;;;5111241;28;20530;-69
2022/12/02 06:07:49;;;;;;;53.05;22.25;;;2.80;99.90;;;;;;5111514;28;20130;-69
2022/12/02 06:10:22;;;;;;;52.85;20.63;;;2.80;99.90;;;;;;5111676;28;20043;-70
2022/12/02 06:12:51;;;;;;;50.28;21.67;;;2.80;99.90;;;;;;5093260;28;20039;-69
2022/12/02 06:15:17;;;;;;;57.65;23.67;;;2.70;99.90;;;;;;5111487;28;20106;-69
2022/12/02 06:17:43;;;;;;;53.97;23.83;;;2.70;99.90;;;;;;5111817;28;20684;-70
2022/12/02 06:20:35;;;;;;;52.58;22.45;;;2.70;99.90;;;;;;5110928;28;20499;-69
2022/12/02 06:23:02;;;;;;;60.90;22.33;;;2.70;99.90;;;;;;5106736;28;20400;-69
2022/12/02 06:25:30;;;;;;;62.47;23.10;;;2.70;99.90;;;;;;5110178;28;20044;-69
2022/12/02 06:28:01;;;;;;;54.88;23.10;;;2.70;99.90;;;;;;5111644;28;20050;-69
2022/12/02 06:30:27;;;;;;;55.63;24.90;;;2.70;99.90;;;;;;5111533;28;20039;-69
2022/12/02 06:32:56;;;;;;;57.80;23.13;;;2.70;99.90;;;;;;5111276;28;20035;-69
2022/12/02 06:35:26;;;;;;;57.40;24.25;;;2.70;99.90;;;;;;5075863;28;20368;-69
2022/12/02 06:38:08;;;;;;;53.25;23.70;;;2.60;99.90;;;;;;5110206;28;20379;-69
2022/12/02 06:40:35;;;;;;;53.60;23.33;;;2.60;99.90;;;;;;5092466;28;20098;-69
2022/12/02 06:43:11;;;;;;;60.88;23.95;;;2.60;99.90;;;;;;5110019;28;20048;-69
2022/12/02 06:45:36;;;;;;;55.80;23.02;;;2.60;99.90;;;;;;5075976;28;20044;-69
2022/12/02 06:48:07;;;;;;;58.58;23.27;;;2.60;99.90;;;;;;5110357;28;20119;-69
2022/12/02 06:50:37;;;;;;;56.65;23.08;;;2.60;99.90;;;;;;5109180;28;20455;-68
2022/12/02 06:53:26;;;;;;;57.83;23.67;;;2.60;99.90;;;;;;5108922;28;20402;-68
2022/12/02 06:55:59;;;;;;;51.80;22.90;;;2.60;99.90;;;;;;5097661;28;20047;-68
2022/12/02 06:58:54;;;;;;;63.90;24.13;;;2.50;99.90;;;;;;5075879;28;20040;-69
2022/12/02 07:01:28;;;;;;;55.67;23.38;;;2.60;99.90;;;;;;5105842;28;20254;-69
2022/12/02 07:03:54;;;;;;;61.88;25.13;;;2.60;99.90;;;;;;5109103;28;20036;-69
2022/12/02 07:06:24;;;;;;;63.00;25.63;;;2.60;99.90;;;;;;5110675;28;20105;-69
2022/12/02 07:08:50;;;;;;;58.77;25.60;;;2.60;99.90;;;;;;5110873;28;20079;-69
2022/12/02 07:14:19;;;;;;;59.63;25.15;;;2.60;99.90;;;;;;5109406;28;20048;-68
2022/12/02 07:16:46;;;;;;;62.53;25.05;;;2.60;99.90;;;;;;5110852;28;20508;-70
2022/12/02 07:19:21;;;;;;;55.00;24.20;;;2.60;99.90;;;;;;5075231;28;20071;-68
2022/12/02 07:21:47;;;;;;;61.67;24.88;;;2.60;99.90;;;;;;5109444;28;20046;-69
2022/12/02 07:24:17;;;;;;;58.78;25.13;;;2.60;99.90;;;;;;5110801;28;20040;-68
2022/12/02 07:26:45;;;;;;;61.77;24.87;;;2.60;99.90;;;;;;5110699;28;20043;-68
2022/12/02 07:29:20;;;;;;;57.60;25.60;;;2.60;99.90;;;;;;5109332;28;20289;-68
2022/12/02 07:31:45;;;;;;;55.83;23.17;;;2.60;99.90;;;;;;5091964;28;20074;-68
2022/12/02 07:34:12;;;;;;;59.33;23.88;;;2.60;99.90;;;;;;5109087;28;20075;-68
2022/12/02 07:36:38;;;;;;;61.13;24.10;;;2.50;99.90;;;;;;5110481;28;20039;-68
2022/12/02 07:39:05;;;;;;;67.38;25.33;;;2.60;99.90;;;;;;5109438;28;20035;-68
2022/12/02 07:41:30;;;;;;;54.65;24.52;;;2.50;99.90;;;;;;5092420;28;20036;-68
2022/12/02 07:43:56;;;;;;;66.72;25.58;;;2.60;99.90;;;;;;5092191;28;20047;-68
2022/12/02 07:46:22;;;;;;;63.72;25.45;;;2.60;99.90;;;;;;5109966;28;20157;-68
2022/12/02 07:48:47;;;;;;;62.15;25.25;;;2.50;99.90;;;;;;5110383;28;20031;-68
2022/12/02 07:51:13;;;;;;;66.85;24.45;;;2.60;99.90;;;;;;5110459;28;20047;-68
2022/12/02 07:53:39;;;;;;;62.88;24.67;;;2.50;99.90;;;;;;5109140;28;20415;-68
2022/12/02 07:56:05;;;;;;;68.70;25.80;;;2.60;99.90;;;;;;5092007;28;20702;-68
2022/12/02 07:58:31;;;;;;;66.25;26.02;;;2.60;99.90;;;;;;5110522;28;20036;-68
2022/12/02 08:00:57;;;;;;;61.97;25.50;;;2.60;99.90;;;;;;5091717;28;20131;-69
2022/12/02 08:03:22;;;;;;;67.65;25.83;;;2.70;99.90;;;;;;5108883;28;20501;-68
2022/12/02 08:05:48;;;;;;;65.40;25.25;;;2.70;99.90;;;;;;5092072;28;20044;-67
2022/12/02 08:08:16;;;;;;;62.08;25.73;;;2.80;99.90;;;;;;5110118;28;20086;-67
2022/12/02 08:10:42;;;;;;;64.95;26.42;;;2.80;99.90;;;;;;5092133;28;20054;-67
2022/12/02 08:13:08;;;;;;;58.20;26.75;;;2.80;99.90;;;;;;5108843;28;20036;-68
2022/12/02 08:15:33;;;;;;;61.38;23.23;;;2.90;99.90;;;;;;5109914;28;20096;-68
2022/12/02 08:17:59;;;;;;;65.00;26.75;;;2.90;99.90;;;;;;5077692;28;20051;-67
2022/12/02 08:20:27;;;;;;;71.43;26.85;;;2.90;99.90;;;;;;5113684;28;20043;-68
2022/12/02 08:22:53;;;;;;;66.80;26.63;;;2.90;99.90;;;;;;5095562;28;20047;-68
2022/12/02 08:25:18;;;;;;;64.85;26.17;;;3.00;99.90;;;;;;5113748;28;20050;-68
2022/12/02 08:27:44;;;;;;;72.05;26.50;;;3.00;99.90;;;;;;5095397;28;20050;-66
2022/12/02 08:30:11;;;;;;;58.28;24.48;;;3.00;99.90;;;;;;5094717;28;20067;-67
2022/12/02 08:32:37;;;;;;;60.35;26.48;;;3.00;99.90;;;;;;5095031;28;20043;-68
2022/12/02 08:35:03;;;;;;;65.32;27.25;;;3.10;99.90;;;;;;5078344;28;20108;-68
2022/12/02 08:37:28;;;;;;;63.20;26.08;;;3.10;99.90;;;;;;5095408;28;20368;-67
2022/12/02 08:39:54;;;;;;;77.10;27.83;;;3.10;99.90;;;;;;5113285;28;20101;-67
2022/12/02 08:42:20;;;;;;;57.63;25.83;;;3.10;99.90;;;;;;5113325;28;20044;-67
2022/12/02 08:44:46;;;;;;;64.28;25.95;;;3.10;99.90;;;;;;5094345;28;20539;-68
2022/12/02 08:47:11;;;;;;;57.42;23.92;;;3.10;99.90;;;;;;5094122;28;20043;-68
2022/12/02 08:49:37;;;;;;;63.03;25.40;;;3.10;99.90;;;;;;5112751;28;20051;-67
2022/12/02 08:52:03;;;;;;;61.35;25.55;;;3.10;99.90;;;;;;5094421;28;20067;-67
2022/12/02 08:54:29;;;;;;;61.78;28.60;;;3.10;99.90;;;;;;5112455;28;20489;-68
2022/12/02 08:56:55;;;;;;;61.70;25.73;;;3.10;99.90;;;;;;5112733;28;20054;-68
2022/12/02 08:59:21;;;;;;;57.88;25.50;;;3.10;99.90;;;;;;5094163;28;20039;-67
2022/12/02 09:01:47;;;;;;;60.22;25.20;;;3.20;99.90;;;;;;5112771;28;20070;-67
2022/12/02 09:04:13;;;;;;;64.82;26.27;;;3.20;99.90;;;;;;5077641;28;20079;-68
2022/12/02 09:06:40;;;;;;;55.00;24.45;;;3.20;99.90;;;;;;5112787;28;20035;-68
2022/12/02 09:09:06;;;;;;;55.55;26.17;;;3.20;99.90;;;;;;5112778;28;20047;-68
2022/12/02 09:11:32;;;;;;;56.25;22.92;;;3.20;99.90;;;;;;5094271;28;20054;-68
2022/12/02 09:13:58;;;;;;;53.78;22.73;;;3.20;99.90;;;;;;5093898;28;20035;-68
2022/12/02 09:16:23;;;;;;;49.38;21.48;;;3.20;99.90;;;;;;5094293;28;20368;-68
2022/12/02 09:18:50;;;;;;;52.08;21.38;;;3.10;99.90;;;;;;5112884;28;20097;-68
2022/12/02 09:21:15;;;;;;;48.53;19.92;;;3.10;99.90;;;;;;5094432;28;20035;-68
2022/12/02 09:23:41;;;;;;;48.22;20.48;;;3.10;99.90;;;;;;5094489;28;20046;-67
2022/12/02 09:26:07;;;;;;;50.95;22.63;;;3.10;99.90;;;;;;5077440;28;20055;-68
2022/12/02 09:28:32;;;;;;;49.30;22.98;;;3.10;99.90;;;;;;5111936;28;20051;-67
2022/12/02 09:30:58;;;;;;;59.42;23.17;;;3.10;99.90;;;;;;5094083;28;20686;-69
2022/12/02 09:33:24;;;;;;;56.25;23.70;;;3.10;99.90;;;;;;5094102;28;20043;-68
2022/12/02 09:35:50;;;;;;;54.78;23.70;;;3.00;99.90;;;;;;5094036;28;20054;-69
2022/12/02 09:38:16;;;;;;;61.50;24.00;;;3.00;99.90;;;;;;5094090;28;20039;-69
2022/12/02 09:40:43;;;;;;;49.63;19.30;;;3.00;99.90;;;;;;5092688;28;20047;-68
2022/12/02 09:43:09;;;;;;;43.20;18.92;;;3.00;99.90;;;;;;5071963;28;20472;-69
2022/12/02 09:45:34;;;;;;;53.03;20.83;;;2.90;99.90;;;;;;5055940;28;20048;-67
2022/12/02 09:48:01;;;;;;;53.88;21.55;;;2.90;99.90;;;;;;5091249;28;20055;-68
2022/12/02 09:50:26;;;;;;;47.78;22.77;;;2.90;99.90;;;;;;5073251;28;20484;-67
2022/12/02 09:53:01;;;;;;;50.30;22.10;;;2.90;99.90;;;;;;5072909;28;20059;-67
2022/12/02 09:55:51;;;;;;;47.58;19.75;;;2.90;99.90;;;;;;5091465;28;20052;-68
2022/12/02 09:58:19;;;;;;;53.92;21.48;;;2.90;99.90;;;;;;5087857;28;20039;-68
2022/12/02 10:00:46;;;;;;;53.22;20.95;;;2.90;99.90;;;;;;5089614;28;20396;-67
2022/12/02 10:03:16;;;;;;;48.72;19.70;;;3.00;99.90;;;;;;5107168;28;20051;-67
2022/12/02 10:05:42;;;;;;;48.88;20.92;;;3.10;99.90;;;;;;5107151;28;20052;-67
2022/12/02 10:08:16;;;;;;;42.40;18.25;;;3.20;99.90;;;;;;5091652;28;20123;-67
2022/12/02 10:10:43;;;;;;;47.28;19.63;;;3.20;99.90;;;;;;5107139;28;20136;-67
2022/12/02 10:13:19;;;;;;;45.28;19.38;;;3.30;99.90;;;;;;5091124;28;20047;-67
2022/12/02 10:15:46;;;;;;;47.40;19.05;;;3.30;99.90;;;;;;5106867;28;20126;-67
2022/12/02 10:18:25;;;;;;;40.60;19.80;;;3.40;99.90;;;;;;5089858;28;20523;-66
2022/12/02 10:20:52;;;;;;;48.03;20.05;;;3.40;99.90;;;;;;5107164;28;20044;-68
2022/12/02 10:23:20;;;;;;;46.85;22.65;;;3.50;99.90;;;;;;5106960;28;20499;-67
2022/12/02 10:25:57;;;;;;;40.05;20.35;;;3.60;99.90;;;;;;5090884;28;20047;-66
2022/12/02 10:28:28;;;;;;;42.53;21.70;;;3.70;99.90;;;;;;5091097;28;20079;-67
2022/12/02 10:31:11;;;;;;;44.88;21.33;;;3.80;99.90;;;;;;5106605;28;20041;-67
2022/12/02 10:33:52;;;;;;;44.08;19.48;;;3.90;99.90;;;;;;5106508;28;20054;-66
2022/12/02 10:36:32;;;;;;;42.33;18.58;;;3.90;99.90;;;;;;5106451;28;20043;-66
2022/12/02 10:39:17;;;;;;;43.13;19.23;;;3.90;99.90;;;;;;5106073;28;20173;-66
2022/12/02 10:41:44;;;;;;;40.33;18.60;;;3.80;99.90;;;;;;5105388;28;20101;-66
2022/12/02 10:44:18;;;;;;;43.42;17.65;;;3.80;99.90;;;;;;5089204;28;20043;-65
2022/12/02 10:46:45;;;;;;;43.00;18.60;;;3.70;99.90;;;;;;5090483;28;20361;-68
2022/12/02 10:49:33;;;;;;;39.30;17.40;;;3.80;99.90;;;;;;5105707;28;20050;-66
2022/12/02 10:52:05;;;;;;;40.85;18.45;;;4.00;99.90;;;;;;5105909;28;20067;-68
2022/12/02 10:54:33;;;;;;;43.92;17.70;;;4.10;99.90;;;;;;5105570;28;20052;-69
2022/12/02 10:57:03;;;;;;;35.97;16.77;;;4.30;99.90;;;;;;5090676;28;20036;-68
2022/12/02 10:59:30;;;;;;;40.80;22.13;;;4.30;99.90;;;;;;5106143;28;20040;-68
2022/12/02 11:01:56;;;;;;;42.72;18.92;;;4.10;99.90;;;;;;5089257;28;20043;-67
2022/12/02 11:04:22;;;;;;;49.10;20.75;;;4.00;99.90;;;;;;5106134;28;20584;-67
2022/12/02 11:06:48;;;;;;;53.50;25.38;;;3.90;99.90;;;;;;5089093;28;20046;-67
2022/12/02 11:09:22;;;;;;;45.25;18.98;;;3.90;99.90;;;;;;5088802;28;20079;-68
2022/12/02 11:11:48;;;;;;;46.67;21.40;;;3.80;99.90;;;;;;5072287;28;20527;-68
2022/12/02 11:14:37;;;;;;;48.92;22.02;;;3.80;99.90;;;;;;5072364;28;20040;-67
2022/12/02 11:17:06;;;;;;;47.78;21.38;;;3.70;99.90;;;;;;5079615;28;20381;-67
2022/12/02 11:19:32;;;;;;;48.28;19.85;;;3.60;99.90;;;;;;5090362;28;20044;-66
2022/12/02 11:21:58;;;;;;;45.75;18.92;;;3.60;99.90;;;;;;5106387;28;20059;-67
2022/12/02 11:24:26;;;;;;;45.17;20.35;;;3.60;99.90;;;;;;5088865;28;20479;-68
2022/12/02 11:27:01;;;;;;;46.40;21.60;;;3.60;99.90;;;;;;5106010;28;20483;-69
2022/12/02 11:29:30;;;;;;;51.67;21.20;;;3.70;99.90;;;;;;5106328;28;20043;-68
2022/12/02 11:32:15;;;;;;;55.30;25.67;;;3.70;99.90;;;;;;5088758;28;20044;-67
2022/12/02 11:34:44;;;;;;;44.40;18.65;;;3.70;99.90;;;;;;5105733;28;20055;-68
2022/12/02 11:37:32;;;;;;;46.55;22.00;;;3.70;99.90;;;;;;5105956;28;20070;-68
2022/12/02 11:40:27;;;;;;;48.70;20.40;;;3.70;99.90;;;;;;5076092;28;20172;-68
2022/12/02 11:43:31;;;;;;;45.63;21.45;;;3.60;99.90;;;;;;5059635;28;20563;-68
2022/12/02 11:45:58;;;;;;;53.50;26.00;;;3.60;99.90;;;;;;5090125;28;20122;-68
2022/12/02 11:48:24;;;;;;;47.75;22.35;;;3.60;99.90;;;;;;5090172;28;20039;-68
2022/12/02 11:50:50;;;;;;;47.40;20.85;;;3.60;99.90;;;;;;5089949;28;20414;-68
2022/12/02 11:53:18;;;;;;;46.40;21.48;;;3.60;99.90;;;;;;5108648;28;20047;-68
2022/12/02 11:55:50;;;;;;;57.15;23.98;;;3.60;99.90;;;;;;5109947;28;20105;-67
2022/12/02 11:58:24;;;;;;;51.65;24.55;;;3.60;99.90;;;;;;5093888;28;20094;-68
2022/12/02 12:01:26;;;;;;;47.50;21.75;;;3.60;99.90;;;;;;5093892;28;20120;-68
2022/12/02 12:03:53;;;;;;;45.83;22.35;;;3.60;99.90;;;;;;5092133;28;20108;-67
2022/12/02 12:06:21;;;;;;;50.45;22.95;;;3.50;99.90;;;;;;5109431;28;20048;-68
2022/12/02 12:08:49;;;;;;;47.17;23.67;;;3.50;99.90;;;;;;5109188;28;20040;-68
2022/12/02 12:11:14;;;;;;;56.83;24.02;;;3.50;99.90;;;;;;5093602;28;20028;-67
2022/12/02 12:13:59;;;;;;;54.22;25.48;;;3.50;99.90;;;;;;5075231;28;20408;-67
2022/12/02 12:16:25;;;;;;;55.20;23.80;;;3.50;99.90;;;;;;5074807;28;20040;-67
2022/12/02 12:18:52;;;;;;;54.90;26.17;;;3.60;99.90;;;;;;5092368;28;20076;-67
2022/12/02 12:21:30;;;;;;;53.85;24.52;;;3.60;99.90;;;;;;5091075;28;20036;-68
2022/12/02 12:24:16;;;;;;;54.05;22.98;;;3.60;99.90;;;;;;5108255;28;20377;-67
2022/12/02 12:26:56;;;;;;;52.17;25.20;;;3.60;99.90;;;;;;5092136;28;20123;-68
2022/12/02 12:29:23;;;;;;;;;;;3.60;99.90;;;;;;5092578;28;20040;-67
2022/12/02 12:31:49;;;;;;;51.53;25.92;;;3.60;99.90;;;;;;5090487;28;20399;-68
2022/12/02 12:34:15;;;;;;;50.58;24.75;;;3.60;99.90;;;;;;5083949;28;20399;-67
2022/12/02 12:36:42;;;;;;;51.50;23.33;;;3.60;99.90;;;;;;5111743;28;20085;-68
2022/12/02 12:39:09;;;;;;;56.05;24.48;;;3.50;99.90;;;;;;5090478;28;20056;-67
2022/12/02 12:41:35;;;;;;;61.38;26.30;;;3.50;99.90;;;;;;5091852;28;20040;-66
2022/12/02 12:44:01;;;;;;;55.58;27.15;;;3.60;99.90;;;;;;5091675;28;20408;-67
2022/12/02 12:46:27;;;;;;;49.08;24.13;;;3.60;99.90;;;;;;5107396;28;20036;-68
2022/12/02 12:48:53;;;;;;;54.67;25.52;;;3.60;99.90;;;;;;5091602;28;20097;-68
2022/12/02 12:51:19;;;;;;;56.08;24.05;;;3.60;99.90;;;;;;5108477;28;20039;-68